Time;durP1;ratioP1;P1;durP2;ratioP2;P2;SDS_P1;SDS_P2;PMS_P1;PMS_P2;Temp;Humidity;BMP_temperature;BMP_pressure;BME280_temperature;BME280_humidity;BME280_pressure;Samples;Min_cycle;Max_cycle;Signal;HPM_P1;HPM_P2
2021/04/12 00:00:41;;;;;;;;;;;;;;;27.56;23.73;101542.56;5075524;28;855;-30
2021/04/12 00:03:27;;;;;;;;;;;;;;;27.94;23.10;101537.53;5075749;28;995;-34
2021/04/12 00:05:52;;;;;;;;;;;;;;;27.83;23.43;101535.16;5076378;28;1732;-34
2021/04/12 00:08:20;;;;;;;;;;;;;;;27.96;23.33;101532.78;5077125;28;763;-32
2021/04/12 00:11:06;;;;;;;;;;;;;;;27.34;24.02;101526.78;5077034;28;827;-32
2021/04/12 00:13:31;;;;;;;;;;;;;;;27.48;24.07;101535.25;5075197;28;1411;-32
2021/04/12 00:16:17;;;;;;;;;;;;;;;27.91;23.77;101534.31;5077049;28;1148;-30
2021/04/12 00:18:43;;;;;;;;;;;;;;;27.90;23.57;101522.66;5045112;28;1972;-31
2021/04/12 00:21:13;;;;;;;;;;;;;;;27.91;23.44;101528.91;5058171;28;875;-33
2021/04/12 00:23:42;;;;;;;;;;;;;;;27.37;23.73;101517.53;5058811;28;1316;-32
2021/04/12 00:26:09;;;;;;;;;;;;;;;27.53;23.98;101513.97;5077108;28;775;-32
2021/04/12 00:28:42;;;;;;;;;;;;;;;27.94;23.47;101509.63;5076697;28;706;-32
2021/04/12 00:31:22;;;;;;;;;;;;;;;27.96;23.14;101513.03;5077014;28;807;-29
2021/04/12 00:33:49;;;;;;;;;;;;;;;27.92;23.23;101509.81;5059048;28;728;-28
2021/04/12 00:36:22;;;;;;;;;;;;;;;27.59;23.60;101502.50;5058573;28;808;-32
2021/04/12 00:38:52;;;;;;;;;;;;;;;27.58;23.90;101500.81;5058869;28;1905;-31
2021/04/12 00:41:36;;;;;;;;;;;;;;;28.00;23.38;101500.84;5065009;28;825;-32
2021/04/12 00:44:16;;;;;;;;;;;;;;;27.92;23.51;101498.16;5097226;28;772;-32
2021/04/12 00:46:57;;;;;;;;;;;;;;;27.91;23.22;101489.19;5092053;28;1065;-32
2021/04/12 00:49:31;;;;;;;;;;;;;;;27.34;24.13;101490.84;5076261;28;804;-32
2021/04/12 00:52:14;;;;;;;;;;;;;;;27.48;24.03;101486.63;5076510;28;852;-32
2021/04/12 00:54:45;;;;;;;;;;;;;;;27.93;23.73;101480.91;5076684;28;752;-33
2021/04/12 00:57:22;;;;;;;;;;;;;;;28.01;23.36;101480.06;5058464;28;816;-31
2021/04/12 00:59:48;;;;;;;;;;;;;;;28.03;23.39;101478.84;5076206;28;1934;-33
2021/04/12 01:02:32;;;;;;;;;;;;;;;27.57;23.79;101482.06;5076180;28;1054;-32
2021/04/12 01:05:09;;;;;;;;;;;;;;;27.25;24.38;101471.06;5075932;28;788;-33
2021/04/12 01:07:53;;;;;;;;;;;;;;;27.83;23.67;101473.81;5076642;28;788;-29
2021/04/12 01:10:24;;;;;;;;;;;;;;;28.02;23.56;101465.50;5075907;28;812;-33
2021/04/12 01:12:55;;;;;;;;;;;;;;;27.97;23.51;101471.44;5075926;28;768;-33
2021/04/12 01:15:39;;;;;;;;;;;;;;;27.67;23.41;101471.94;5099450;28;1277;-33
2021/04/12 01:18:13;;;;;;;;;;;;;;;27.33;24.14;101465.66;5084019;28;1921;-29
2021/04/12 01:20:57;;;;;;;;;;;;;;;27.28;24.49;101469.91;5058168;28;900;-32
2021/04/12 01:23:35;;;;;;;;;;;;;;;27.83;23.78;101464.84;5076332;28;787;-33
2021/04/12 01:26:19;;;;;;;;;;;;;;;27.85;23.74;101465.53;5075734;28;829;-32
2021/04/12 01:28:53;;;;;;;;;;;;;;;27.91;23.52;101466.72;5076267;28;734;-33
2021/04/12 01:31:27;;;;;;;;;;;;;;;27.47;23.91;101461.47;5077857;28;911;-32
2021/04/12 01:34:11;;;;;;;;;;;;;;;27.48;24.32;101462.28;5079901;28;779;-31
2021/04/12 01:36:43;;;;;;;;;;;;;;;27.85;23.70;101454.72;5080125;28;771;-33
2021/04/12 01:39:27;;;;;;;;;;;;;;;27.86;23.84;101451.03;5079940;28;1902;-33
2021/04/12 01:41:55;;;;;;;;;;;;;;;27.90;23.80;101446.94;5079840;28;752;-30
2021/04/12 01:44:24;;;;;;;;;;;;;;;27.67;23.62;101444.06;5079948;28;755;-28
2021/04/12 01:46:55;;;;;;;;;;;;;;;27.37;24.31;101448.13;5079162;28;986;-32
2021/04/12 01:49:35;;;;;;;;;;;;;;;27.22;24.58;101442.53;5079667;28;779;-31
2021/04/12 01:52:19;;;;;;;;;;;;;;;27.73;24.20;101436.16;5079817;28;768;-32
2021/04/12 01:54:45;;;;;;;;;;;;;;;28.00;23.88;101441.34;5079940;28;507;-33
2021/04/12 01:57:31;;;;;;;;;;;;;;;27.92;23.88;101438.66;5061203;28;756;-31
2021/04/12 02:00:15;;;;;;;;;;;;;;;27.72;23.52;101431.78;5079245;28;1960;-32
2021/04/12 02:02:50;;;;;;;;;;;;;;;27.36;24.32;101432.09;5079207;28;958;-31
2021/04/12 02:05:20;;;;;;;;;;;;;;;27.26;24.60;101435.78;5079056;28;812;-33
2021/04/12 02:08:01;;;;;;;;;;;;;;;27.80;24.07;101435.47;5061869;28;771;-32
2021/04/12 02:10:29;;;;;;;;;;;;;;;27.95;23.85;101435.59;5061330;28;737;-32
2021/04/12 02:13:13;;;;;;;;;;;;;;;27.95;23.98;101436.47;5101050;28;840;-33
2021/04/12 02:15:54;;;;;;;;;;;;;;;27.95;23.80;101433.75;5120427;28;1109;-33
2021/04/12 02:18:37;;;;;;;;;;;;;;;27.47;24.43;101428.19;5082212;28;1965;-32
2021/04/12 02:21:02;;;;;;;;;;;;;;;27.74;24.22;101435.13;5099651;28;883;-32
2021/04/12 02:23:40;;;;;;;;;;;;;;;28.02;23.99;101436.63;5099666;28;833;-33
2021/04/12 02:26:15;;;;;;;;;;;;;;;27.96;24.14;101429.19;5099188;28;761;-33
2021/04/12 02:28:40;;;;;;;;;;;;;;;28.06;23.73;101431.72;5099185;28;905;-32
2021/04/12 02:31:23;;;;;;;;;;;;;;;27.67;23.79;101435.94;5099279;28;822;-32
2021/04/12 02:33:57;;;;;;;;;;;;;;;27.59;24.42;101423.31;5081318;28;856;-33
2021/04/12 02:36:45;;;;;;;;;;;;;;;27.96;23.95;101421.91;5099443;28;839;-33
2021/04/12 02:39:17;;;;;;;;;;;;;;;27.96;23.69;101431.91;5099496;28;1902;-31
2021/04/12 02:41:51;;;;;;;;;;;;;;;27.93;24.07;101424.97;5098547;28;771;-30
2021/04/12 02:44:35;;;;;;;;;;;;;;;27.67;23.92;101422.44;5080907;28;799;-33
2021/04/12 02:47:19;;;;;;;;;;;;;;;27.37;24.43;101420.25;5091626;28;1002;-32
2021/04/12 02:50:02;;;;;;;;;;;;;;;27.78;24.41;101421.28;5079182;28;759;-30
2021/04/12 02:52:31;;;;;;;;;;;;;;;27.98;24.06;101417.19;5078863;28;748;-32
2021/04/12 02:54:59;;;;;;;;;;;;;;;27.93;23.91;101421.41;5078581;28;803;-33
2021/04/12 02:57:25;;;;;;;;;;;;;;;27.99;23.67;101424.25;5078802;28;732;-33
2021/04/12 03:00:09;;;;;;;;;;;;;;;27.54;24.13;101429.22;5078592;28;1906;-31
2021/04/12 03:02:47;;;;;;;;;;;;;;;27.60;22.79;101427.69;5077830;28;962;-33
2021/04/12 03:05:30;;;;;;;;;;;;;;;27.68;23.21;101425.00;5078324;28;853;-36
2021/04/12 03:08:10;;;;;;;;;;;;;;;27.54;22.46;101426.50;5078534;28;886;-41
2021/04/12 03:10:35;;;;;;;;;;;;;;;27.69;22.93;101425.84;5076863;28;790;-31
2021/04/12 03:13:05;;;;;;;;;;;;;;;27.35;22.82;101428.53;5078447;28;821;-42
2021/04/12 03:15:39;;;;;;;;;;;;;;;27.37;23.25;101429.22;5076941;28;1056;-40
2021/04/12 03:18:10;;;;;;;;;;;;;;;27.49;23.28;101423.47;5077525;28;1921;-27
2021/04/12 03:20:35;;;;;;;;;;;;;;;27.33;22.89;101427.84;5077930;28;700;-39
2021/04/12 03:23:09;;;;;;;;;;;;;;;27.49;22.79;101424.28;5077637;28;882;-42
2021/04/12 03:25:34;;;;;;;;;;;;;;;26.92;23.41;101427.75;5077945;28;847;-42
2021/04/12 03:28:07;;;;;;;;;;;;;;;27.16;23.29;101436.97;5077847;28;831;-31
2021/04/12 03:30:45;;;;;;;;;;;;;;;26.56;17.08;101423.44;5078029;28;798;-39
2021/04/12 03:33:22;;;;;;;;;;;;;;;24.61;14.96;101422.16;5077354;28;1006;-33
2021/04/12 03:36:00;;;;;;;;;;;;;;;25.05;21.62;101432.25;5076766;28;735;-34
2021/04/12 03:38:44;;;;;;;;;;;;;;;26.35;21.27;101425.53;5077756;28;1902;-41
2021/04/12 03:41:12;;;;;;;;;;;;;;;26.23;22.18;101433.03;5077581;28;763;-33
2021/04/12 03:44:14;;;;;;;;;;;;;;;25.91;23.16;101434.53;5077692;28;775;-33
2021/04/12 03:46:58;;;;;;;;;;;;;;;25.03;17.04;101426.19;5034593;28;1020;-32
2021/04/12 03:49:23;;;;;;;;;;;;;;;23.55;16.37;101414.94;5074454;28;1056;-37
2021/04/12 03:52:07;;;;;;;;;;;;;;;23.31;17.65;101420.69;5077524;28;844;-37
2021/04/12 03:54:38;;;;;;;;;;;;;;;23.32;18.99;101422.41;5077533;28;924;-34
2021/04/12 03:57:22;;;;;;;;;;;;;;;23.31;17.68;101421.56;5077424;28;871;-41
2021/04/12 03:59:57;;;;;;;;;;;;;;;22.81;17.57;101425.13;5077433;28;1893;-38
2021/04/12 04:02:41;;;;;;;;;;;;;;;22.52;17.22;101424.06;5076976;28;1017;-34
2021/04/12 04:05:24;;;;;;;;;;;;;;;22.07;17.32;101423.41;5077170;28;810;-37
2021/04/12 04:08:05;;;;;;;;;;;;;;;22.20;17.10;101430.38;5077430;28;886;-36
2021/04/12 04:10:33;;;;;;;;;;;;;;;21.86;17.30;101426.09;5077198;28;829;-34
2021/04/12 04:13:07;;;;;;;;;;;;;;;21.88;17.10;101424.13;5077089;28;847;-34
2021/04/12 04:15:51;;;;;;;;;;;;;;;21.80;16.98;101426.63;5077233;28;1072;-31
2021/04/12 04:18:28;;;;;;;;;;;;;;;21.52;17.47;101422.59;5076476;28;1906;-33
2021/04/12 04:20:53;;;;;;;;;;;;;;;21.84;17.95;101428.03;5079028;28;1376;-34
2021/04/12 04:23:28;;;;;;;;;;;;;;;22.72;18.40;101424.16;5097461;28;795;-33
2021/04/12 04:26:02;;;;;;;;;;;;;;;23.75;18.50;101430.19;5097011;28;820;-34
2021/04/12 04:28:28;;;;;;;;;;;;;;;23.43;20.22;101426.81;5097303;28;883;-38
2021/04/12 04:31:12;;;;;;;;;;;;;;;23.42;20.64;101433.19;5096911;28;791;-32
2021/04/12 04:33:40;;;;;;;;;;;;;;;23.93;20.04;101420.41;5077176;28;756;-36
2021/04/12 04:36:08;;;;;;;;;;;;;;;24.49;20.15;101430.41;5076911;28;890;-43
2021/04/12 04:38:55;;;;;;;;;;;;;;;23.90;21.01;101420.69;5076556;28;1906;-33
2021/04/12 04:41:20;;;;;;;;;;;;;;;23.80;21.54;101425.22;5076596;28;845;-43
2021/04/12 04:43:50;;;;;;;;;;;;;;;24.54;20.44;101430.00;5076997;28;851;-43
2021/04/12 04:46:18;;;;;;;;;;;;;;;25.00;20.16;101435.41;5074852;28;958;-30
2021/04/12 04:48:52;;;;;;;;;;;;;;;24.37;21.38;101432.47;5075076;28;855;-35
2021/04/12 04:51:26;;;;;;;;;;;;;;;23.97;22.17;101429.84;5076792;28;858;-33
2021/04/12 04:53:52;;;;;;;;;;;;;;;24.46;21.72;101433.41;5076301;28;815;-31
2021/04/12 04:56:20;;;;;;;;;;;;;;;24.58;21.75;101437.59;5076734;28;951;-29
2021/04/12 04:58:48;;;;;;;;;;;;;;;24.16;22.38;101429.94;5076888;28;1890;-32
2021/04/12 05:01:16;;;;;;;;;;;;;;;24.36;22.22;101432.63;5075832;28;974;-31
2021/04/12 05:04:00;;;;;;;;;;;;;;;24.97;21.52;101438.41;5076522;28;936;-33
2021/04/12 05:06:25;;;;;;;;;;;;;;;24.99;21.64;101435.56;5081269;28;763;-31
2021/04/12 05:09:00;;;;;;;;;;;;;;;24.38;22.69;101431.47;5082638;28;818;-35
2021/04/12 05:11:44;;;;;;;;;;;;;;;24.36;22.76;101435.31;5083340;28;859;-33
2021/04/12 05:14:18;;;;;;;;;;;;;;;25.16;21.94;101442.81;5083024;28;1084;-32
2021/04/12 05:17:09;;;;;;;;;;;;;;;25.50;21.15;101443.13;5082310;28;1019;-32
2021/04/12 05:19:34;;;;;;;;;;;;;;;24.43;22.32;101445.31;5066982;28;1906;-37
2021/04/12 05:22:05;;;;;;;;;;;;;;;24.11;23.24;101434.94;5082984;28;813;-31
2021/04/12 05:24:48;;;;;;;;;;;;;;;24.90;22.32;101439.97;5082887;28;820;-39
2021/04/12 05:27:14;;;;;;;;;;;;;;;25.27;21.99;101433.66;5085409;28;1122;-39
2021/04/12 05:29:49;;;;;;;;;;;;;;;24.62;23.05;101434.63;5088096;28;1316;-36
2021/04/12 05:32:27;;;;;;;;;;;;;;;24.27;23.62;101435.19;5064408;28;1574;-35
2021/04/12 05:35:01;;;;;;;;;;;;;;;24.82;21.10;101433.50;5095990;28;1079;-31
2021/04/12 05:37:26;;;;;;;;;;;;;;;25.37;19.60;101430.03;5102282;28;744;-29
2021/04/12 05:40:10;;;;;;;;;;;;;;;24.93;18.71;101437.88;5102785;28;1902;-34
2021/04/12 05:42:54;;;;;;;;;;;;;;;24.55;19.05;101443.28;5103193;28;883;-35
2021/04/12 05:45:28;;;;;;;;;;;;;;;24.88;18.71;101432.06;5102988;28;763;-35
2021/04/12 05:48:03;;;;;;;;;;;;;;;25.15;17.75;101433.03;5088023;28;974;-36
2021/04/12 05:50:29;;;;;;;;;;;;;;;24.39;18.41;101432.31;5099812;28;843;-38
2021/04/12 05:53:06;;;;;;;;;;;;;;;24.25;18.57;101423.72;5102760;28;712;-35
2021/04/12 05:55:40;;;;;;;;;;;;;;;24.91;17.72;101431.78;5103056;28;787;-36
2021/04/12 05:58:11;;;;;;;;;;;;;;;24.66;17.65;101428.78;5102677;28;835;-42
2021/04/12 06:00:40;;;;;;;;;;;;;;;24.20;18.40;101428.69;5102688;28;957;-32
2021/04/12 06:03:06;;;;;;;;;;;;;;;24.23;19.57;101432.91;5085861;28;1010;-38
2021/04/12 06:05:34;;;;;;;;;;;;;;;24.72;19.82;101432.72;5082514;28;819;-37
2021/04/12 06:08:02;;;;;;;;;;;;;;;24.41;20.80;101425.78;5080828;28;831;-33
2021/04/12 06:10:30;;;;;;;;;;;;;;;24.36;21.19;101429.94;5082271;28;811;-44
2021/04/12 06:13:08;;;;;;;;;;;;;;;24.73;21.03;101433.56;5082042;28;883;-43
2021/04/12 06:15:33;;;;;;;;;;;;;;;24.39;21.68;101427.75;5081874;28;1280;-43
2021/04/12 06:18:17;;;;;;;;;;;;;;;24.44;21.72;101432.72;5078134;28;1021;-35
2021/04/12 06:20:58;;;;;;;;;;;;;;;24.91;21.28;101439.84;5080133;28;1204;-34
2021/04/12 06:23:29;;;;;;;;;;;;;;;24.69;21.79;101438.41;5088641;28;1311;-34
2021/04/12 06:26:06;;;;;;;;;;;;;;;24.53;22.04;101442.56;5080066;28;1303;-35
2021/04/12 06:28:32;;;;;;;;;;;;;;;24.53;22.27;101434.50;5099359;28;811;-39
2021/04/12 06:31:09;;;;;;;;;;;;;;;24.49;22.37;101427.72;5098810;28;811;-31
2021/04/12 06:33:53;;;;;;;;;;;;;;;24.59;22.44;101438.44;5098704;28;900;-33
2021/04/12 06:36:25;;;;;;;;;;;;;;;24.58;22.52;101436.75;5099124;28;764;-40
2021/04/12 06:38:51;;;;;;;;;;;;;;;24.57;22.75;101440.44;5098411;28;1901;-41
2021/04/12 06:41:39;;;;;;;;;;;;;;;24.84;22.51;101441.41;5099061;28;815;-41
2021/04/12 06:44:20;;;;;;;;;;;;;;;24.74;22.70;101437.94;5063044;28;1123;-28
2021/04/12 06:46:57;;;;;;;;;;;;;;;24.73;22.72;101437.09;5076355;28;1292;-40
2021/04/12 06:49:46;;;;;;;;;;;;;;;24.76;22.75;101433.25;5083432;28;1172;-35
2021/04/12 06:52:30;;;;;;;;;;;;;;;24.99;22.67;101436.41;5063069;28;1469;-31
2021/04/12 06:55:05;;;;;;;;;;;;;;;24.87;22.74;101434.91;5098397;28;1415;-40
2021/04/12 06:57:49;;;;;;;;;;;;;;;24.81;23.06;101441.72;5098530;28;904;-33
2021/04/12 07:00:26;;;;;;;;;;;;;;;24.68;23.13;101434.88;5096275;28;1901;-40
2021/04/12 07:02:55;;;;;;;;;;;;;;;24.94;22.90;101438.72;5078391;28;998;-40
2021/04/12 07:05:38;;;;;;;;;;;;;;;24.82;23.19;101444.25;5078464;28;767;-35
2021/04/12 07:08:22;;;;;;;;;;;;;;;24.71;23.35;101433.69;5077795;28;847;-33
2021/04/12 07:10:47;;;;;;;;;;;;;;;24.69;23.53;101435.72;5078169;28;728;-31
2021/04/12 07:13:31;;;;;;;;;;;;;;;24.70;23.39;101432.88;5078133;28;815;-30
2021/04/12 07:15:57;;;;;;;;;;;;;;;24.62;23.63;101432.78;5077370;28;1063;-43
2021/04/12 07:18:40;;;;;;;;;;;;;;;24.74;23.54;101435.25;5077513;28;1909;-33
2021/04/12 07:21:12;;;;;;;;;;;;;;;24.65;24.03;101429.78;5077602;28;732;-36
2021/04/12 07:23:40;;;;;;;;;;;;;;;24.73;23.71;101428.16;5078318;28;828;-32
2021/04/12 07:26:11;;;;;;;;;;;;;;;24.74;23.76;101433.41;5077925;28;860;-42
2021/04/12 07:28:55;;;;;;;;;;;;;;;24.70;23.81;101422.13;5076976;28;803;-39
2021/04/12 07:31:44;;;;;;;;;;;;;;;24.71;23.76;101425.63;5077484;28;991;-30
2021/04/12 07:34:30;;;;;;;;;;;;;;;24.75;23.83;101428.88;5059829;28;760;-31
2021/04/12 07:37:13;;;;;;;;;;;;;;;24.75;23.93;101420.81;5076679;28;1031;-33
2021/04/12 07:39:51;;;;;;;;;;;;;;;24.84;23.79;101425.25;5077557;28;2026;-31
2021/04/12 07:42:34;;;;;;;;;;;;;;;24.80;23.93;101418.50;5077463;28;914;-33
2021/04/12 07:45:03;;;;;;;;;;;;;;;24.77;23.97;101418.81;5077257;28;812;-41
2021/04/12 07:47:31;;;;;;;;;;;;;;;24.79;23.97;101416.81;5077072;28;979;-41
2021/04/12 07:50:08;;;;;;;;;;;;;;;24.91;23.76;101409.41;5077211;28;769;-42
2021/04/12 07:52:34;;;;;;;;;;;;;;;24.90;23.94;101418.44;5077111;28;808;-29
2021/04/12 07:55:19;;;;;;;;;;;;;;;24.85;24.07;101418.91;5077336;28;764;-32
2021/04/12 07:58:03;;;;;;;;;;;;;;;24.79;24.15;101419.50;5046233;28;1062;-42
2021/04/12 08:00:52;;;;;;;;;;;;;;;24.94;23.93;101414.50;5059113;28;1957;-31
2021/04/12 08:03:17;;;;;;;;;;;;;;;25.00;23.84;101407.66;5068764;28;1751;-31
2021/04/12 08:05:46;;;;;;;;;;;;;;;25.12;23.76;101405.59;5076784;28;767;-31
2021/04/12 08:08:29;;;;;;;;;;;;;;;24.98;23.87;101401.56;5095267;28;1350;-32
2021/04/12 08:11:03;;;;;;;;;;;;;;;25.00;23.83;101397.72;5079078;28;839;-30
2021/04/12 08:13:47;;;;;;;;;;;;;;;25.03;23.75;101402.81;5096967;28;1137;-37
2021/04/12 08:16:12;;;;;;;;;;;;;;;25.03;23.84;101402.81;5096195;28;1061;-30
2021/04/12 08:19:00;;;;;;;;;;;;;;;25.04;23.82;101400.97;5076823;28;1976;-32
2021/04/12 08:21:55;;;;;;;;;;;;;;;25.08;23.87;101402.34;5086710;28;1197;-31
2021/04/12 08:24:39;;;;;;;;;;;;;;;25.10;23.81;101394.97;5038938;28;1517;-31
2021/04/12 08:27:07;;;;;;;;;;;;;;;25.14;23.84;101380.19;5079125;28;1122;-32
2021/04/12 08:29:47;;;;;;;;;;;;;;;25.11;23.88;101385.88;5085627;28;1278;-30
2021/04/12 08:32:27;;;;;;;;;;;;;;;25.03;24.07;101383.97;5085029;28;1320;-32
2021/04/12 08:35:11;;;;;;;;;;;;;;;25.15;23.75;101373.81;5085899;28;1303;-34
2021/04/12 08:37:36;;;;;;;;;;;;;;;25.22;23.72;101371.34;5086828;28;1253;-41
2021/04/12 08:40:04;;;;;;;;;;;;;;;25.24;23.83;101368.50;5084611;28;1975;-41
2021/04/12 08:42:43;;;;;;;;;;;;;;;25.25;23.88;101362.97;5108984;28;832;-33
2021/04/12 08:45:20;;;;;;;;;;;;;;;25.18;23.99;101368.13;5082338;28;1103;-32
2021/04/12 08:47:45;;;;;;;;;;;;;;;25.34;23.71;101360.34;5080854;28;1050;-33
2021/04/12 08:50:28;;;;;;;;;;;;;;;25.34;23.82;101366.53;5076216;28;834;-29
2021/04/12 08:52:53;;;;;;;;;;;;;;;25.28;23.86;101361.78;5058166;28;841;-33
2021/04/12 08:55:24;;;;;;;;;;;;;;;25.31;23.84;101365.03;5081096;28;1196;-33
2021/04/12 08:57:59;;;;;;;;;;;;;;;24.54;23.85;101217.50;5083757;28;1359;-39
2021/04/12 09:00:53;;;;;;;;;;;;;;;25.32;23.71;101357.81;5079057;28;1905;-33
2021/04/12 09:03:48;;;;;;;;;;;;;;;25.30;23.78;101360.66;5076524;28;1254;-32
2021/04/12 09:06:13;;;;;;;;;;;;;;;25.34;23.76;101347.69;5023709;28;1041;-41
2021/04/12 09:08:41;;;;;;;;;;;;;;;25.36;23.70;101350.25;5087232;28;1215;-32
2021/04/12 09:11:25;;;;;;;;;;;;;;;25.31;23.63;101350.72;5091061;28;1379;-42
2021/04/12 09:14:08;;;;;;;;;;;;;;;25.35;23.78;101346.72;5085544;28;1141;-33
2021/04/12 09:16:38;;;;;;;;;;;;;;;25.36;23.63;101344.88;5087700;28;1058;-34
2021/04/12 09:19:12;;;;;;;;;;;;;;;25.28;23.86;101341.09;5074578;28;1914;-32
2021/04/12 09:21:47;;;;;;;;;;;;;;;25.25;24.04;101333.34;5079742;28;1224;-40
2021/04/12 09:24:31;;;;;;;;;;;;;;;25.23;23.98;101338.03;5096448;28;847;-35
2021/04/12 09:27:05;;;;;;;;;;;;;;;25.37;23.92;101342.03;5095968;28;883;-29
2021/04/12 09:29:36;;;;;;;;;;;;;;;24.57;17.58;101333.69;5096386;28;855;-37
2021/04/12 09:32:20;;;;;;;;;;;;;;;22.33;19.00;101321.13;5088911;28;974;-31
2021/04/12 09:35:03;;;;;;;;;;;;;;;22.30;17.58;101329.44;5075555;28;894;-28
2021/04/12 09:37:37;;;;;;;;;;;;;;;21.90;17.82;101321.22;5076045;28;795;-31
2021/04/12 09:40:15;;;;;;;;;;;;;;;23.21;17.55;101327.59;5075869;28;1951;-28
2021/04/12 09:42:52;;;;;;;;;;;;;;;22.54;20.65;101314.81;5075588;28;799;-29
2021/04/12 09:45:26;;;;;;;;;;;;;;;22.97;22.10;101317.31;5076312;28;843;-32
2021/04/12 09:48:04;;;;;;;;;;;;;;;23.86;18.69;101314.47;5075316;28;997;-33
2021/04/12 09:50:47;;;;;;;;;;;;;;;23.78;20.17;101312.53;5075736;28;808;-30
2021/04/12 09:53:31;;;;;;;;;;;;;;;23.87;18.64;101309.97;5094031;28;1173;-33
2021/04/12 09:56:15;;;;;;;;;;;;;;;23.94;20.02;101301.16;5099845;28;827;-32
2021/04/12 09:58:40;;;;;;;;;;;;;;;23.92;18.75;101305.81;5099425;28;1894;-32
2021/04/12 10:01:11;;;;;;;;;;;;;;;24.06;18.13;101283.00;5099892;28;1481;-29
2021/04/12 10:04:15;;;;;;;;;;;;;;;24.23;18.74;101277.00;5099383;28;930;-29
2021/04/12 10:06:58;;;;;;;;;;;;;;;24.16;16.55;101282.97;5037460;28;1343;-28
2021/04/12 10:09:50;;;;;;;;;;;;;;;24.25;17.49;101281.25;5037453;28;792;-31
2021/04/12 10:12:30;;;;;;;;;;;;;;;24.33;16.56;101275.97;5078097;28;1271;-34
2021/04/12 10:15:14;;;;;;;;;;;;;;;24.25;16.53;101278.56;5080676;28;966;-32
2021/04/12 10:17:40;;;;;;;;;;;;;;;24.51;17.97;101263.50;5086669;28;1030;-31
2021/04/12 10:20:11;;;;;;;;;;;;;;;24.47;17.32;101260.31;5080783;28;1917;-31
2021/04/12 10:23:09;;;;;;;;;;;;;;;24.50;17.84;101267.22;5079160;28;1365;-30
2021/04/12 10:25:34;;;;;;;;;;;;;;;24.54;16.37;101260.53;5049153;28;1388;-33
2021/04/12 10:28:13;;;;;;;;;;;;;;;24.52;17.03;101258.00;5087660;28;1272;-32
2021/04/12 10:30:44;;;;;;;;;;;;;;;24.74;17.40;101253.13;5068614;28;1233;-32
2021/04/12 10:33:14;;;;;;;;;;;;;;;24.83;17.27;101251.38;5078903;28;958;-31
2021/04/12 10:35:50;;;;;;;;;;;;;;;24.66;16.44;101242.31;5060540;28;833;-29
2021/04/12 10:38:18;;;;;;;;;;;;;;;24.93;17.73;101244.09;5060823;28;752;-33
2021/04/12 10:41:05;;;;;;;;;;;;;;;24.90;17.77;101238.13;5079169;28;803;-33
2021/04/12 10:43:36;;;;;;;;;;;;;;;25.02;17.57;101238.78;5078340;28;2007;-30
2021/04/12 10:46:14;;;;;;;;;;;;;;;25.04;18.72;101234.91;5078794;28;870;-32
2021/04/12 10:48:50;;;;;;;;;;;;;;;25.15;18.09;101233.81;5077303;28;857;-32
2021/04/12 10:51:27;;;;;;;;;;;;;;;25.18;17.64;101238.03;5060604;28;776;-33
2021/04/12 10:54:13;;;;;;;;;;;;;;;25.17;17.61;101233.66;5078631;28;835;-30
2021/04/12 10:56:45;;;;;;;;;;;;;;;25.24;17.77;101226.63;5078135;28;802;-30
2021/04/12 10:59:29;;;;;;;;;;;;;;;25.13;16.76;101234.97;5060282;28;1959;-28
2021/04/12 11:02:01;;;;;;;;;;;;;;;25.14;17.50;101226.72;5078663;28;967;-30
2021/04/12 11:04:38;;;;;;;;;;;;;;;25.25;17.70;101228.34;5076362;28;759;-28
2021/04/12 11:07:03;;;;;;;;;;;;;;;24.71;16.86;101215.78;5076817;28;804;-32
2021/04/12 11:09:33;;;;;;;;;;;;;;;25.01;18.00;101216.38;5078324;28;763;-29
2021/04/12 11:12:03;;;;;;;;;;;;;;;25.05;17.35;101203.47;5087388;28;1341;-33
2021/04/12 11:14:45;;;;;;;;;;;;;;;25.02;17.10;101198.41;5098048;28;1162;-33
2021/04/12 11:17:30;;;;;;;;;;;;;;;24.99;17.81;101207.63;5077653;28;1374;-31
2021/04/12 11:20:08;;;;;;;;;;;;;;;25.05;17.85;101198.94;5079765;28;1911;-30
2021/04/12 11:22:40;;;;;;;;;;;;;;;24.84;18.20;101199.22;5098303;28;819;-34
2021/04/12 11:25:06;;;;;;;;;;;;;;;24.98;18.67;101197.88;5079905;28;808;-28
2021/04/12 11:27:40;;;;;;;;;;;;;;;25.12;18.88;101199.16;5098137;28;854;-34
2021/04/12 11:30:21;;;;;;;;;;;;;;;25.31;18.62;101197.22;5098043;28;743;-32
2021/04/12 11:33:05;;;;;;;;;;;;;;;25.24;17.89;101194.31;5083521;28;1014;-32
2021/04/12 11:35:53;;;;;;;;;;;;;;;25.35;18.03;101190.53;5077206;28;846;-33
2021/04/12 11:38:21;;;;;;;;;;;;;;;25.29;18.95;101193.88;5071455;28;1200;-30
2021/04/12 11:40:52;;;;;;;;;;;;;;;25.27;18.18;101188.63;5075450;28;830;-30
2021/04/12 11:43:20;;;;;;;;;;;;;;;25.34;18.94;101190.69;5076852;28;840;-31
2021/04/12 11:45:57;;;;;;;;;;;;;;;25.34;18.86;101179.91;5077154;28;787;-28
2021/04/12 11:48:36;;;;;;;;;;;;;;;24.57;17.10;101182.22;5073989;28;1054;-34
2021/04/12 11:51:04;;;;;;;;;;;;;;;23.90;18.34;101176.19;5076151;28;811;-34
2021/04/12 11:53:32;;;;;;;;;;;;;;;25.02;17.93;101177.72;5090279;28;1509;-33
2021/04/12 11:56:33;;;;;;;;;;;;;;;25.47;18.56;101169.53;5096900;28;771;-36
2021/04/12 11:59:03;;;;;;;;;;;;;;;25.70;17.60;101168.97;5014657;28;1971;-38
2021/04/12 12:01:30;;;;;;;;;;;;;;;25.78;18.74;101155.53;5079754;28;1006;-37
2021/04/12 12:04:11;;;;;;;;;;;;;;;25.80;18.71;101169.69;5085027;28;1117;-34
2021/04/12 12:06:36;;;;;;;;;;;;;;;25.73;19.22;101160.56;5078420;28;857;-34
2021/04/12 12:09:07;;;;;;;;;;;;;;;25.79;18.35;101161.78;5097273;28;807;-35
2021/04/12 12:11:36;;;;;;;;;;;;;;;25.74;18.69;101164.13;5096930;28;862;-35
2021/04/12 12:14:06;;;;;;;;;;;;;;;25.74;18.72;101159.56;5079036;28;1162;-36
2021/04/12 12:16:35;;;;;;;;;;;;;;;25.72;19.13;101155.34;5091552;28;950;-33
2021/04/12 12:19:03;;;;;;;;;;;;;;;25.62;18.40;101148.22;5073748;28;1963;-34
2021/04/12 12:21:41;;;;;;;;;;;;;;;25.83;19.03;101146.94;5096005;28;1250;-33
2021/04/12 12:24:07;;;;;;;;;;;;;;;25.98;19.28;101149.00;5077597;28;1111;-35
2021/04/12 12:26:44;;;;;;;;;;;;;;;26.00;20.08;101141.59;5083654;28;1281;-33
2021/04/12 12:29:29;;;;;;;;;;;;;;;26.02;19.86;101136.88;5062859;28;1348;-35
2021/04/12 12:32:04;;;;;;;;;;;;;;;26.00;19.41;101144.28;5057841;28;1130;-34
2021/04/12 12:34:49;;;;;;;;;;;;;;;25.99;19.61;101140.75;5075570;28;756;-36
2021/04/12 12:37:17;;;;;;;;;;;;;;;26.10;19.23;101138.75;5076136;28;824;-33
2021/04/12 12:39:46;;;;;;;;;;;;;;;26.16;19.08;101132.69;5076083;28;1968;-35
2021/04/12 12:42:13;;;;;;;;;;;;;;;26.17;19.14;101140.59;5076222;28;832;-36
2021/04/12 12:44:38;;;;;;;;;;;;;;;26.00;19.34;101137.06;5075430;28;834;-34
2021/04/12 12:47:08;;;;;;;;;;;;;;;26.11;19.33;101135.88;5077081;28;1002;-34
2021/04/12 12:49:33;;;;;;;;;;;;;;;26.01;18.80;101135.19;5078664;28;756;-35
2021/04/12 12:52:00;;;;;;;;;;;;;;;26.08;19.68;101133.53;5078062;28;1353;-39
2021/04/12 12:54:31;;;;;;;;;;;;;;;26.11;19.80;101135.06;5078785;28;778;-36
2021/04/12 12:57:00;;;;;;;;;;;;;;;26.04;19.91;101132.19;5096717;28;855;-37
2021/04/12 12:59:26;;;;;;;;;;;;;;;26.15;19.88;101141.78;5078009;28;1960;-32
2021/04/12 13:01:52;;;;;;;;;;;;;;;26.07;19.96;101134.53;5077854;28;999;-36
2021/04/12 13:04:27;;;;;;;;;;;;;;;26.19;20.25;101137.75;5074520;28;801;-34
2021/04/12 13:06:56;;;;;;;;;;;;;;;25.52;20.19;101032.53;5074036;28;1036;-33
2021/04/12 13:09:23;;;;;;;;;;;;;;;26.19;20.39;101129.66;5090255;28;815;-35
2021/04/12 13:11:49;;;;;;;;;;;;;;;26.25;20.42;101130.84;5074170;28;1081;-33
2021/04/12 13:14:29;;;;;;;;;;;;;;;26.20;20.78;101139.44;5078078;28;1161;-35
2021/04/12 13:16:54;;;;;;;;;;;;;;;26.34;20.65;101137.94;5089555;28;1033;-36
2021/04/12 13:19:20;;;;;;;;;;;;;;;26.38;20.74;101141.16;5074486;28;1918;-35
2021/04/12 13:21:46;;;;;;;;;;;;;;;26.24;20.65;101138.06;5076103;28;780;-33
2021/04/12 13:24:17;;;;;;;;;;;;;;;26.23;20.65;101135.53;5075822;28;831;-39
2021/04/12 13:26:45;;;;;;;;;;;;;;;26.33;20.66;101148.91;5077373;28;744;-36
2021/04/12 13:29:26;;;;;;;;;;;;;;;26.36;20.75;101138.63;5078186;28;1099;-39
2021/04/12 13:31:56;;;;;;;;;;;;;;;26.29;21.00;101145.69;5078273;28;959;-39
2021/04/12 13:34:33;;;;;;;;;;;;;;;26.34;20.85;101137.13;5077806;28;887;-35